Time;durP1;ratioP1;P1;durP2;ratioP2;P2;SDS_P1;SDS_P2;PMS_P1;PMS_P2;Temp;Humidity;BMP_temperature;BMP_pressure;BME280_temperature;BME280_humidity;BME280_pressure;Samples;Min_cycle;Max_cycle;Signal;HPM_P1;HPM_P2
2023/05/18 00:00:09;;;;;;;8.57;4.77;;;21.90;68.70;;;;;;5027221;28;20450;-82
2023/05/18 00:02:36;;;;;;;4.97;3.90;;;21.90;68.00;;;;;;5026861;28;20534;-80
2023/05/18 00:05:03;;;;;;;4.63;4.20;;;21.90;68.10;;;;;;5028338;28;20224;-83
2023/05/18 00:07:32;;;;;;;5.40;3.70;;;21.90;68.10;;;;;;5030858;28;20873;-82
2023/05/18 00:10:00;;;;;;;5.70;3.40;;;21.80;67.90;;;;;;5018045;28;20469;-82
2023/05/18 00:12:27;;;;;;;5.47;4.10;;;21.80;68.10;;;;;;5022850;28;20450;-82
2023/05/18 00:14:54;;;;;;;5.60;3.73;;;21.80;68.00;;;;;;5027934;28;20200;-83
2023/05/18 00:17:21;;;;;;;9.48;3.70;;;21.80;68.20;;;;;;5023234;28;20457;-83
2023/05/18 00:19:49;;;;;;;5.10;4.53;;;21.80;68.10;;;;;;5027559;28;20258;-82
2023/05/18 00:22:17;;;;;;;3.75;3.42;;;21.80;68.20;;;;;;5023981;28;20228;-83
2023/05/18 00:24:45;;;;;;;6.03;3.85;;;21.80;68.30;;;;;;5023363;28;20228;-83
2023/05/18 00:27:12;;;;;;;5.38;3.65;;;21.80;68.20;;;;;;5022073;28;20208;-81
2023/05/18 00:29:39;;;;;;;3.83;3.50;;;21.80;68.20;;;;;;5026310;28;20211;-80
2023/05/18 00:32:06;;;;;;;4.55;3.72;;;21.80;68.30;;;;;;5016632;28;20206;-81
2023/05/18 00:34:33;;;;;;;4.60;3.30;;;21.80;68.30;;;;;;5021575;28;20200;-81
2023/05/18 00:36:59;;;;;;;4.68;4.22;;;21.80;68.30;;;;;;5026409;28;20200;-82
2023/05/18 00:39:26;;;;;;;5.73;3.90;;;21.70;68.20;;;;;;5023092;28;20693;-82
2023/05/18 00:41:54;;;;;;;5.73;3.97;;;21.70;68.30;;;;;;5028696;28;20455;-83
2023/05/18 00:44:21;;;;;;;6.75;4.35;;;21.70;68.20;;;;;;5031173;28;20870;-82
2023/05/18 00:46:49;;;;;;;4.32;3.47;;;21.70;68.30;;;;;;5028325;28;20196;-82
2023/05/18 00:49:15;;;;;;;5.53;3.83;;;21.70;68.30;;;;;;5027686;28;20196;-82
2023/05/18 00:51:43;;;;;;;5.60;4.25;;;21.70;68.30;;;;;;5026152;28;20250;-82
2023/05/18 00:54:10;;;;;;;4.72;3.17;;;21.70;68.30;;;;;;5024547;28;20196;-82
2023/05/18 00:56:40;;;;;;;3.90;3.13;;;21.70;68.30;;;;;;5022635;28;20216;-82
2023/05/18 00:59:10;;;;;;;7.05;4.43;;;21.70;68.40;;;;;;5022221;28;20195;-83
2023/05/18 01:01:42;;;;;;;4.95;3.40;;;21.70;68.40;;;;;;5025753;28;20205;-82
2023/05/18 01:04:09;;;;;;;5.28;3.78;;;21.70;68.50;;;;;;5025335;28;20266;-81
2023/05/18 01:06:36;;;;;;;4.70;3.40;;;21.70;68.40;;;;;;5030370;28;20204;-82
2023/05/18 01:09:05;;;;;;;3.60;3.30;;;21.70;68.50;;;;;;5015900;28;20366;-82
2023/05/18 01:11:39;;;;;;;4.60;3.92;;;21.70;68.50;;;;;;5023599;28;20200;-82
2023/05/18 01:14:14;;;;;;;4.78;3.70;;;21.60;68.40;;;;;;5025498;28;20204;-82
2023/05/18 01:16:52;;;;;;;3.80;3.42;;;21.60;68.50;;;;;;5018686;28;20617;-83
2023/05/18 01:20:05;;;;;;;3.35;3.05;;;21.60;68.50;;;;;;5025188;28;20262;-82
2023/05/18 01:22:40;;;;;;;4.75;3.70;;;21.60;68.70;;;;;;5026041;28;20216;-83
2023/05/18 01:25:16;;;;;;;3.70;3.40;;;21.60;68.60;;;;;;5025183;28;20227;-82
2023/05/18 01:27:46;;;;;;;4.53;3.40;;;21.60;68.70;;;;;;5029279;28;20255;-83
2023/05/18 01:30:15;;;;;;;4.07;2.90;;;21.60;68.70;;;;;;5028150;28;20694;-82
2023/05/18 01:32:42;;;;;;;5.03;3.25;;;21.60;68.70;;;;;;5025948;28;20208;-82
2023/05/18 01:35:09;;;;;;;4.53;3.20;;;21.60;68.70;;;;;;5027819;28;20206;-82
2023/05/18 01:37:36;;;;;;;5.93;3.75;;;21.60;68.70;;;;;;5021239;28;20200;-82
2023/05/18 01:40:04;;;;;;;4.22;3.72;;;21.60;68.70;;;;;;5026398;28;20570;-82
2023/05/18 01:42:34;;;;;;;6.07;3.58;;;21.50;68.60;;;;;;5024356;28;20200;-82
2023/05/18 01:45:05;;;;;;;3.55;3.25;;;21.50;68.70;;;;;;5029699;28;20999;-83
2023/05/18 01:47:34;;;;;;;4.80;3.65;;;21.50;68.70;;;;;;5027836;28;20211;-83
2023/05/18 01:50:06;;;;;;;5.88;3.72;;;21.50;68.70;;;;;;5030312;28;20684;-82
2023/05/18 01:52:37;;;;;;;5.13;3.47;;;21.50;68.70;;;;;;5031549;28;20199;-83
2023/05/18 01:55:06;;;;;;;4.88;3.20;;;21.50;68.80;;;;;;5025570;28;20632;-82
2023/05/18 01:57:35;;;;;;;4.15;3.15;;;21.50;68.70;;;;;;5028418;28;20252;-83
2023/05/18 02:00:06;;;;;;;3.42;2.95;;;21.50;68.70;;;;;;5034650;28;20588;-82
2023/05/18 02:02:33;;;;;;;4.90;3.70;;;21.50;68.80;;;;;;5028479;28;20196;-82
2023/05/18 02:05:00;;;;;;;4.13;2.78;;;21.50;68.80;;;;;;5034269;28;20228;-82
2023/05/18 02:07:27;;;;;;;3.92;3.38;;;21.50;68.80;;;;;;5024537;28;20208;-86
2023/05/18 02:09:53;;;;;;;5.90;3.67;;;21.50;68.90;;;;;;5028857;28;20563;-86
2023/05/18 02:12:20;;;;;;;3.75;3.45;;;21.50;68.80;;;;;;5034161;28;20215;-86
2023/05/18 02:14:47;;;;;;;3.78;3.10;;;21.50;68.80;;;;;;5031673;28;20197;-87
2023/05/18 02:17:15;;;;;;;4.00;3.22;;;21.50;68.80;;;;;;5026917;28;20200;-86
2023/05/18 02:19:41;;;;;;;3.85;2.95;;;21.50;68.90;;;;;;5033208;28;20628;-86
2023/05/18 02:22:08;;;;;;;4.78;4.10;;;21.40;68.70;;;;;;5025962;28;20656;-87
2023/05/18 02:24:35;;;;;;;3.65;3.28;;;21.40;68.70;;;;;;5028278;28;20306;-86
2023/05/18 02:27:02;;;;;;;4.60;2.88;;;21.50;68.90;;;;;;5029471;28;20224;-87
2023/05/18 02:29:29;;;;;;;4.03;3.25;;;21.40;68.70;;;;;;5033731;28;20257;-86
2023/05/18 02:31:55;;;;;;;4.50;2.55;;;21.40;68.80;;;;;;5032032;28;20216;-87
2023/05/18 02:34:23;;;;;;;3.15;2.85;;;21.40;68.80;;;;;;5031360;28;20664;-86
2023/05/18 02:36:50;;;;;;;3.90;2.72;;;21.40;68.80;;;;;;5029500;28;20199;-86
2023/05/18 02:39:17;;;;;;;3.35;3.05;;;21.40;68.90;;;;;;5029235;28;20204;-87
2023/05/18 02:41:44;;;;;;;4.50;3.35;;;21.40;68.90;;;;;;5024031;28;20215;-86
2023/05/18 02:44:12;;;;;;;3.30;2.92;;;21.40;68.90;;;;;;5028574;28;20249;-85
2023/05/18 02:46:38;;;;;;;4.72;3.22;;;21.40;68.90;;;;;;5019821;28;20274;-86
2023/05/18 02:49:05;;;;;;;3.08;2.72;;;21.40;68.90;;;;;;5025155;28;20196;-85
2023/05/18 02:51:33;;;;;;;3.63;3.17;;;21.40;69.00;;;;;;5024766;28;20204;-85
2023/05/18 02:54:00;;;;;;;4.38;2.90;;;21.40;68.90;;;;;;5025858;28;20584;-85
2023/05/18 02:56:27;;;;;;;3.40;2.80;;;21.40;69.00;;;;;;5024515;28;21074;-82
2023/05/18 02:58:56;;;;;;;3.00;2.50;;;21.40;69.00;;;;;;5028270;28;20247;-82
2023/05/18 03:01:25;;;;;;;4.53;2.90;;;21.40;69.00;;;;;;5023773;28;20200;-82
2023/05/18 03:03:52;;;;;;;3.75;2.65;;;21.40;69.00;;;;;;5031021;28;20204;-83
2023/05/18 03:06:22;;;;;;;2.95;2.60;;;21.40;69.10;;;;;;5026677;28;20224;-82
2023/05/18 03:08:50;;;;;;;4.75;3.05;;;21.40;69.10;;;;;;5029822;28;20295;-83
2023/05/18 03:11:17;;;;;;;4.85;3.28;;;21.40;69.10;;;;;;5025076;28;20204;-82
2023/05/18 03:13:44;;;;;;;3.63;2.83;;;21.40;69.20;;;;;;5026862;28;20196;-82
2023/05/18 03:16:12;;;;;;;3.70;3.28;;;21.40;69.10;;;;;;5030466;28;20196;-82
2023/05/18 03:18:38;;;;;;;3.33;2.70;;;21.40;69.10;;;;;;5027204;28;20668;-82
2023/05/18 03:21:06;;;;;;;3.58;3.22;;;21.40;69.10;;;;;;5029034;28;20217;-82
2023/05/18 03:23:33;;;;;;;3.58;3.08;;;21.40;69.10;;;;;;5023926;28;20243;-82
2023/05/18 03:26:02;;;;;;;3.38;2.60;;;21.30;68.90;;;;;;5025519;28;20572;-82
2023/05/18 03:28:29;;;;;;;4.55;3.47;;;21.40;69.00;;;;;;5023765;28;20192;-82
2023/05/18 03:30:56;;;;;;;4.40;2.92;;;21.30;69.00;;;;;;5019288;28;20745;-83
2023/05/18 03:33:23;;;;;;;2.80;2.47;;;21.40;68.90;;;;;;5025169;28;20288;-82
2023/05/18 03:35:51;;;;;;;4.45;2.83;;;21.30;68.90;;;;;;5027337;28;20197;-82
2023/05/18 03:38:18;;;;;;;3.63;3.05;;;21.30;69.00;;;;;;5024675;28;20212;-82
2023/05/18 03:40:44;;;;;;;3.42;2.72;;;21.30;69.00;;;;;;5028263;28;20204;-82
2023/05/18 03:43:12;;;;;;;5.78;2.88;;;21.30;69.00;;;;;;5027987;28;20209;-82
2023/05/18 03:45:40;;;;;;;3.55;2.40;;;21.30;69.00;;;;;;5024138;28;20754;-82
2023/05/18 03:48:06;;;;;;;2.90;2.70;;;21.30;69.00;;;;;;5025488;28;20656;-82
2023/05/18 03:50:33;;;;;;;3.00;2.60;;;21.30;69.00;;;;;;5022152;28;20193;-82
2023/05/18 03:53:00;;;;;;;2.97;2.65;;;21.30;69.00;;;;;;5024997;28;20659;-82
2023/05/18 03:55:28;;;;;;;3.20;2.90;;;21.30;69.10;;;;;;5015376;28;20283;-82
2023/05/18 03:57:55;;;;;;;2.67;2.47;;;21.30;69.10;;;;;;5020321;28;20680;-82
2023/05/18 04:00:23;;;;;;;3.58;2.63;;;21.30;69.10;;;;;;5017360;28;20200;-82
2023/05/18 04:02:51;;;;;;;2.92;2.65;;;21.30;69.10;;;;;;5021995;28;20207;-82
2023/05/18 04:05:18;;;;;;;3.85;2.75;;;21.30;69.10;;;;;;5026889;28;20216;-82
2023/05/18 04:07:45;;;;;;;3.10;2.72;;;21.30;69.10;;;;;;5027844;28;20971;-82
2023/05/18 04:10:13;;;;;;;2.83;2.42;;;21.30;69.20;;;;;;5021913;28;20299;-82
2023/05/18 04:12:40;;;;;;;2.92;2.35;;;21.30;69.10;;;;;;5025301;28;20200;-83
2023/05/18 04:15:08;;;;;;;4.18;2.90;;;21.30;69.10;;;;;;5025269;28;20258;-83
2023/05/18 04:17:38;;;;;;;5.15;3.35;;;21.30;69.20;;;;;;5025447;28;20211;-83
2023/05/18 04:20:12;;;;;;;2.63;2.42;;;21.30;69.10;;;;;;5028536;28;20215;-83
2023/05/18 04:22:44;;;;;;;3.45;3.10;;;21.30;69.10;;;;;;5023630;28;20216;-82
2023/05/18 04:25:12;;;;;;;2.83;2.53;;;21.20;69.00;;;;;;5021699;28;20355;-81
2023/05/18 04:27:40;;;;;;;2.72;2.03;;;21.20;69.10;;;;;;5025341;28;20663;-81
2023/05/18 04:30:09;;;;;;;3.20;2.60;;;21.30;69.10;;;;;;5022102;28;20219;-82
2023/05/18 04:32:41;;;;;;;2.75;2.53;;;21.20;69.10;;;;;;5023962;28;20283;-82
2023/05/18 04:35:11;;;;;;;2.55;2.35;;;21.20;69.10;;;;;;5024877;28;20212;-82
2023/05/18 04:37:39;;;;;;;3.20;2.90;;;21.20;69.10;;;;;;5020686;28;20231;-83
2023/05/18 04:40:07;;;;;;;4.10;2.40;;;21.20;69.10;;;;;;5022350;28;20200;-83
2023/05/18 04:42:34;;;;;;;2.70;2.45;;;21.20;69.10;;;;;;5027586;28;20202;-82
2023/05/18 04:45:01;;;;;;;3.90;3.08;;;21.20;69.10;;;;;;5026308;28;20208;-82
2023/05/18 04:47:28;;;;;;;2.50;2.28;;;21.20;69.20;;;;;;5023637;28;20202;-83
2023/05/18 04:49:57;;;;;;;3.33;2.95;;;21.20;69.20;;;;;;5029927;28;20231;-83
2023/05/18 04:52:23;;;;;;;2.38;2.17;;;21.20;69.20;;;;;;5027897;28;20226;-82
2023/05/18 04:54:50;;;;;;;3.05;2.35;;;21.20;69.20;;;;;;5025805;28;20202;-82
2023/05/18 04:57:17;;;;;;;3.03;2.72;;;21.20;69.20;;;;;;5023325;28;20228;-82
2023/05/18 04:59:46;;;;;;;4.03;3.05;;;21.20;69.20;;;;;;5029245;28;20200;-83
2023/05/18 05:02:12;;;;;;;4.35;2.40;;;21.20;69.20;;;;;;5025813;28;20571;-83
2023/05/18 05:04:40;;;;;;;3.38;2.67;;;21.20;69.30;;;;;;5028865;28;20200;-83
2023/05/18 05:07:08;;;;;;;2.80;1.92;;;21.20;69.20;;;;;;5020698;28;20626;-82
2023/05/18 05:09:34;;;;;;;3.60;2.90;;;21.10;69.20;;;;;;5025220;28;20651;-83
2023/05/18 05:12:01;;;;;;;2.03;1.83;;;21.10;69.20;;;;;;5024014;28;20205;-82
2023/05/18 05:14:28;;;;;;;3.75;2.45;;;21.10;69.20;;;;;;5024449;28;20635;-82
2023/05/18 05:16:55;;;;;;;1.90;1.70;;;21.10;69.20;;;;;;5028257;28;20203;-82
2023/05/18 05:19:22;;;;;;;2.50;2.25;;;21.10;69.20;;;;;;5030300;28;20200;-82
2023/05/18 05:21:49;;;;;;;2.60;2.17;;;21.20;69.50;;;;;;5031819;28;20208;-81
2023/05/18 05:24:17;;;;;;;4.75;2.00;;;21.10;69.50;;;;;;5033142;28;20211;-82
2023/05/18 05:26:43;;;;;;;2.50;2.30;;;21.10;69.30;;;;;;5024904;28;20223;-81
2023/05/18 05:29:10;;;;;;;2.97;2.45;;;21.10;69.40;;;;;;5025738;28;20200;-82
2023/05/18 05:31:37;;;;;;;2.90;2.28;;;21.20;69.60;;;;;;5026565;28;20200;-81
2023/05/18 05:34:04;;;;;;;2.90;2.17;;;21.20;69.60;;;;;;5033119;28;20798;-81
2023/05/18 05:36:30;;;;;;;2.63;2.10;;;21.20;69.50;;;;;;5033671;28;20188;-81
2023/05/18 05:38:57;;;;;;;3.05;2.20;;;21.20;69.90;;;;;;5028311;28;20196;-81
2023/05/18 05:41:25;;;;;;;2.63;2.42;;;21.20;69.60;;;;;;5031294;28;20738;-82
2023/05/18 05:43:52;;;;;;;2.25;1.95;;;21.20;69.50;;;;;;5026817;28;20568;-82
2023/05/18 05:46:18;;;;;;;3.20;2.83;;;21.20;69.60;;;;;;5028377;28;20216;-83
2023/05/18 05:48:45;;;;;;;2.58;2.10;;;21.20;69.50;;;;;;5026184;28;20644;-83
2023/05/18 05:51:12;;;;;;;5.03;2.83;;;21.20;69.50;;;;;;5026826;28;20204;-83
2023/05/18 05:53:39;;;;;;;2.92;2.47;;;21.20;69.50;;;;;;5032739;28;20211;-83
2023/05/18 05:56:07;;;;;;;2.70;2.40;;;21.30;69.60;;;;;;5028643;28;20196;-81
2023/05/18 05:58:35;;;;;;;2.47;2.28;;;21.20;69.50;;;;;;5032688;28;20196;-81
2023/05/18 06:01:03;;;;;;;2.22;2.03;;;21.20;69.60;;;;;;5021896;28;20196;-80
2023/05/18 06:03:30;;;;;;;2.30;2.03;;;21.30;69.80;;;;;;5033836;28;20287;-80
2023/05/18 06:05:59;;;;;;;2.60;2.22;;;21.30;69.70;;;;;;5032240;28;20212;-81
2023/05/18 06:08:25;;;;;;;2.40;2.20;;;21.30;69.80;;;;;;5032071;28;20200;-80
2023/05/18 06:10:52;;;;;;;3.25;2.50;;;21.30;69.80;;;;;;5029636;28;20200;-80
2023/05/18 06:13:19;;;;;;;2.67;2.20;;;21.40;69.90;;;;;;5029789;28;20208;-81
2023/05/18 06:15:47;;;;;;;2.70;2.45;;;21.40;69.90;;;;;;5028692;28;20208;-80
2023/05/18 06:18:14;;;;;;;2.10;1.90;;;21.40;70.10;;;;;;5029687;28;20548;-80
2023/05/18 06:20:40;;;;;;;3.05;2.13;;;21.40;69.90;;;;;;5029391;28;20655;-80
2023/05/18 06:23:07;;;;;;;2.65;2.00;;;21.40;69.80;;;;;;5023101;28;20694;-80
2023/05/18 06:25:34;;;;;;;1.95;1.75;;;21.40;69.80;;;;;;5020244;28;20199;-79
2023/05/18 06:28:01;;;;;;;2.60;1.85;;;21.50;70.00;;;;;;5030866;28;20192;-80
2023/05/18 06:30:28;;;;;;;2.08;1.35;;;21.50;69.90;;;;;;5024161;28;20206;-80
2023/05/18 06:32:56;;;;;;;2.53;2.15;;;21.50;70.00;;;;;;5030747;28;20467;-80
2023/05/18 06:35:23;;;;;;;2.05;1.75;;;21.50;70.00;;;;;;5028489;28;20206;-80
2023/05/18 06:37:50;;;;;;;2.33;2.10;;;21.50;69.90;;;;;;5028177;28;20193;-80
2023/05/18 06:40:17;;;;;;;2.40;2.08;;;21.60;70.00;;;;;;5026846;28;20204;-80
2023/05/18 06:42:44;;;;;;;2.47;2.23;;;21.60;70.00;;;;;;5027144;28;20196;-79
2023/05/18 06:45:11;;;;;;;2.17;1.97;;;21.60;70.00;;;;;;5026396;28;20458;-79
2023/05/18 06:47:38;;;;;;;2.17;1.77;;;21.60;69.90;;;;;;5024642;28;21011;-80
2023/05/18 06:50:07;;;;;;;1.73;1.63;;;21.60;70.00;;;;;;5029883;28;20679;-80
2023/05/18 06:52:34;;;;;;;2.10;1.90;;;21.60;69.90;;;;;;5031030;28;20470;-80
2023/05/18 06:55:01;;;;;;;2.55;2.08;;;21.60;69.90;;;;;;5023984;28;20208;-79
2023/05/18 06:57:28;;;;;;;1.90;1.75;;;21.70;70.00;;;;;;5026163;28;20220;-80
2023/05/18 06:59:54;;;;;;;2.20;1.73;;;21.70;70.00;;;;;;5025936;28;20207;-79
2023/05/18 07:02:21;;;;;;;2.33;1.70;;;21.70;70.00;;;;;;5025225;28;20612;-80
2023/05/18 07:04:49;;;;;;;2.33;1.80;;;21.70;70.00;;;;;;5027165;28;20627;-80
2023/05/18 07:07:17;;;;;;;1.75;1.50;;;21.70;70.00;;;;;;5024374;28;20259;-80
2023/05/18 07:09:44;;;;;;;1.92;1.73;;;21.70;70.00;;;;;;5028659;28;20208;-79
2023/05/18 07:12:11;;;;;;;2.20;2.00;;;21.70;70.00;;;;;;5029945;28;20232;-79
2023/05/18 07:14:38;;;;;;;1.95;1.52;;;21.70;70.00;;;;;;5021958;28;20660;-80
2023/05/18 07:17:06;;;;;;;2.33;1.75;;;21.70;70.10;;;;;;5022025;28;20227;-79
2023/05/18 07:19:33;;;;;;;2.60;1.77;;;21.70;70.10;;;;;;5029596;28;20196;-79
2023/05/18 07:22:00;;;;;;;1.63;1.52;;;21.80;70.30;;;;;;5027067;28;20232;-79
2023/05/18 07:24:28;;;;;;;2.35;2.13;;;21.80;70.30;;;;;;5024865;28;20295;-79
2023/05/18 07:26:55;;;;;;;2.30;1.77;;;21.80;70.30;;;;;;5030374;28;20290;-79
2023/05/18 07:29:22;;;;;;;2.13;1.93;;;21.80;70.30;;;;;;5024237;28;20208;-79
2023/05/18 07:31:49;;;;;;;1.80;1.65;;;21.80;70.30;;;;;;5028238;28;20481;-79
2023/05/18 07:34:16;;;;;;;1.90;1.65;;;21.80;70.30;;;;;;5024843;28;20208;-80
2023/05/18 07:36:43;;;;;;;2.13;1.65;;;21.80;70.40;;;;;;5027759;28;20192;-76
2023/05/18 07:39:17;;;;;;;1.60;1.50;;;21.80;70.30;;;;;;5027289;28;20200;-78
2023/05/18 07:41:46;;;;;;;2.33;1.67;;;21.80;70.30;;;;;;5023623;28;20463;-77
2023/05/18 07:44:12;;;;;;;1.63;1.40;;;21.80;70.20;;;;;;5021857;28;20464;-78
2023/05/18 07:46:39;;;;;;;2.60;1.70;;;21.80;70.10;;;;;;5022539;28;20213;-78
2023/05/18 07:49:06;;;;;;;1.85;1.50;;;21.80;70.10;;;;;;5022102;28;20204;-78
2023/05/18 07:51:33;;;;;;;2.90;1.83;;;21.80;70.10;;;;;;5024361;28;20196;-78
2023/05/18 07:53:59;;;;;;;2.97;1.83;;;21.80;70.00;;;;;;5027540;28;20199;-78
2023/05/18 07:56:26;;;;;;;2.50;1.55;;;21.80;70.00;;;;;;5028506;28;20216;-77
2023/05/18 07:58:54;;;;;;;2.65;1.55;;;21.80;70.00;;;;;;5029381;28;20202;-78
2023/05/18 08:01:26;;;;;;;2.90;1.73;;;21.80;70.00;;;;;;5018728;28;20208;-78
2023/05/18 08:03:52;;;;;;;1.67;1.55;;;21.90;70.10;;;;;;5027284;28;20473;-78
2023/05/18 08:06:19;;;;;;;1.67;1.42;;;21.90;70.00;;;;;;5030729;28;20204;-78
2023/05/18 08:08:46;;;;;;;2.05;1.55;;;21.90;70.00;;;;;;5029113;28;20287;-78
2023/05/18 08:11:13;;;;;;;2.92;1.80;;;21.90;70.00;;;;;;5022130;28;20231;-77
2023/05/18 08:13:40;;;;;;;13.48;2.00;;;21.90;70.00;;;;;;5027525;28;20204;-77
2023/05/18 08:16:09;;;;;;;2.47;1.30;;;21.90;70.00;;;;;;5023593;28;20196;-82
2023/05/18 08:18:36;;;;;;;3.07;1.73;;;21.90;69.50;;;;;;5021602;28;20204;-83
2023/05/18 08:21:03;;;;;;;2.77;1.77;;;21.90;69.60;;;;;;5026347;28;20467;-83
2023/05/18 08:23:29;;;;;;;1.77;1.37;;;22.00;69.80;;;;;;5022915;28;20471;-82
2023/05/18 08:25:58;;;;;;;1.83;1.40;;;22.00;69.80;;;;;;5019116;28;20487;-82
2023/05/18 08:28:25;;;;;;;5.30;1.50;;;22.00;69.70;;;;;;5022964;28;20479;-80
2023/05/18 08:30:52;;;;;;;1.73;1.43;;;22.00;69.70;;;;;;5025539;28;20197;-79
2023/05/18 08:33:22;;;;;;;1.85;1.40;;;22.00;69.60;;;;;;5021729;28;20469;-82
2023/05/18 08:35:49;;;;;;;6.90;1.30;;;22.10;69.70;;;;;;5024424;28;20204;-82
2023/05/18 08:38:16;;;;;;;1.90;1.50;;;22.10;70.30;;;;;;5019555;28;20448;-82
2023/05/18 08:40:46;;;;;;;1.90;1.70;;;22.10;69.50;;;;;;5019111;28;20545;-82
2023/05/18 08:43:21;;;;;;;3.43;2.30;;;22.10;69.40;;;;;;5028907;28;20200;-80
2023/05/18 08:45:52;;;;;;;1.83;1.73;;;22.10;69.40;;;;;;5022843;28;20469;-80
2023/05/18 08:48:22;;;;;;;2.30;1.80;;;22.20;69.40;;;;;;5025159;28;20486;-80
2023/05/18 08:50:52;;;;;;;2.33;1.63;;;22.10;69.20;;;;;;5026579;28;20455;-80
2023/05/18 08:53:21;;;;;;;2.78;2.00;;;22.20;69.20;;;;;;5014007;28;20477;-80
2023/05/18 08:55:50;;;;;;;3.73;2.10;;;22.20;69.10;;;;;;5019860;28;20667;-80
2023/05/18 08:58:20;;;;;;;5.03;2.57;;;22.20;69.10;;;;;;5027547;28;20450;-79
2023/05/18 09:00:52;;;;;;;4.20;2.10;;;22.30;69.10;;;;;;5024688;28;20557;-80
2023/05/18 09:03:20;;;;;;;2.87;1.97;;;22.30;69.10;;;;;;5024501;28;20463;-80
2023/05/18 09:05:50;;;;;;;2.53;1.87;;;22.30;69.00;;;;;;5023277;28;20641;-80
2023/05/18 09:08:18;;;;;;;3.47;3.17;;;22.30;68.90;;;;;;5024757;28;20487;-80
2023/05/18 09:10:47;;;;;;;2.37;1.87;;;22.40;69.00;;;;;;5022815;28;20463;-80
2023/05/18 09:13:16;;;;;;;2.53;2.13;;;22.40;68.90;;;;;;5018995;28;20456;-80
2023/05/18 09:15:43;;;;;;;2.17;1.97;;;22.40;68.90;;;;;;5018559;28;20454;-80
2023/05/18 09:18:09;;;;;;;1.70;1.40;;;22.40;68.80;;;;;;5020779;28;20830;-80
2023/05/18 09:20:36;;;;;;;2.47;2.03;;;22.40;68.70;;;;;;5023491;28;20800;-80
2023/05/18 09:23:05;;;;;;;3.00;1.93;;;22.40;68.50;;;;;;5025100;28;20472;-80
2023/05/18 09:25:34;;;;;;;3.20;1.97;;;22.50;68.50;;;;;;5018432;28;20940;-80
2023/05/18 09:28:03;;;;;;;2.17;1.63;;;22.50;68.60;;;;;;5023457;28;20493;-80
2023/05/18 09:30:30;;;;;;;2.53;1.60;;;22.50;68.40;;;;;;5016642;28;20463;-80
2023/05/18 09:32:57;;;;;;;3.00;1.80;;;22.50;68.40;;;;;;5024036;28;20459;-80
2023/05/18 09:35:25;;;;;;;3.40;2.00;;;22.50;68.20;;;;;;5023625;28;20463;-80
2023/05/18 09:37:52;;;;;;;1.97;1.60;;;22.50;68.30;;;;;;5025155;28;21042;-80
2023/05/18 09:40:28;;;;;;;2.23;1.60;;;22.60;68.30;;;;;;5027997;28;20771;-82
2023/05/18 09:42:54;;;;;;;2.00;1.63;;;22.60;68.00;;;;;;5028263;28;20459;-82
2023/05/18 09:45:24;;;;;;;2.20;1.80;;;22.60;68.10;;;;;;5028430;28;20544;-82
2023/05/18 09:47:51;;;;;;;4.30;1.90;;;22.70;68.00;;;;;;5026423;28;20498;-81
2023/05/18 09:50:19;;;;;;;7.83;2.87;;;22.70;68.10;;;;;;5024228;28;20463;-81
2023/05/18 09:52:48;;;;;;;9.60;4.13;;;22.70;68.30;;;;;;5024229;28;20463;-79
2023/05/18 09:55:15;;;;;;;7.10;3.50;;;22.70;68.00;;;;;;5025724;28;20809;-80
2023/05/18 09:57:45;;;;;;;8.27;4.23;;;22.70;67.90;;;;;;5027914;28;20501;-80
2023/05/18 10:00:14;;;;;;;10.00;3.77;;;22.70;67.90;;;;;;5029109;28;20520;-80
2023/05/18 10:02:42;;;;;;;8.73;3.03;;;22.80;68.10;;;;;;5022993;28;20466;-81
2023/05/18 10:05:19;;;;;;;5.63;3.10;;;22.80;67.90;;;;;;5027871;28;20957;-82
2023/05/18 10:07:47;;;;;;;11.37;4.47;;;22.80;67.50;;;;;;5030605;28;20540;-82
2023/05/18 10:10:18;;;;;;;8.70;4.03;;;22.80;67.50;;;;;;5027589;28;20469;-83
2023/05/18 10:12:47;;;;;;;8.13;4.00;;;22.90;67.50;;;;;;5028919;28;20463;-83
2023/05/18 10:15:15;;;;;;;6.53;3.53;;;22.90;67.70;;;;;;5032041;28;20486;-84
2023/05/18 10:17:43;;;;;;;6.70;3.30;;;22.90;67.40;;;;;;5031939;28;20466;-85
2023/05/18 10:20:10;;;;;;;7.43;3.03;;;22.90;67.40;;;;;;5024074;28;20468;-85
2023/05/18 10:22:37;;;;;;;6.27;2.80;;;22.90;67.10;;;;;;5025316;28;20465;-84
2023/05/18 10:25:06;;;;;;;8.73;2.70;;;22.90;66.40;;;;;;5019694;28;20463;-85
2023/05/18 10:27:35;;;;;;;4.53;2.00;;;22.90;66.80;;;;;;5029803;28;20573;-80
2023/05/18 10:30:07;;;;;;;4.00;2.57;;;22.90;66.60;;;;;;5021317;28;20827;-81
2023/05/18 10:32:36;;;;;;;6.93;2.63;;;22.90;67.40;;;;;;5021449;28;20501;-81
2023/05/18 10:35:04;;;;;;;6.40;2.40;;;22.90;66.30;;;;;;5022190;28;20474;-89
2023/05/18 10:37:33;;;;;;;7.60;2.33;;;22.80;62.20;;;;;;5022418;28;20483;-81
2023/05/18 10:40:01;;;;;;;8.90;3.27;;;22.80;60.30;;;;;;5018852;28;20467;-81
2023/05/18 10:42:30;;;;;;;4.40;2.60;;;22.70;62.10;;;;;;5022720;28;20447;-84
2023/05/18 10:45:00;;;;;;;7.90;2.20;;;22.80;62.10;;;;;;5015106;28;20466;-91
2023/05/18 10:47:28;;;;;;;5.27;2.60;;;22.80;63.10;;;;;;5026638;28;20474;-91
2023/05/18 10:49:57;;;;;;;9.97;3.23;;;22.80;63.40;;;;;;5022388;28;20973;-91
2023/05/18 10:52:30;;;;;;;2.20;1.80;;;22.90;63.30;;;;;;5025275;28;20554;-89
2023/05/18 10:54:58;;;;;;;6.80;1.77;;;22.80;63.40;;;;;;5014915;28;20938;-86
2023/05/18 10:57:29;;;;;;;7.40;3.37;;;22.90;63.10;;;;;;5024980;28;20502;-88
2023/05/18 10:59:58;;;;;;;7.93;2.20;;;22.90;62.60;;;;;;5030840;28;20548;-87
2023/05/18 11:02:26;;;;;;;4.10;1.97;;;22.90;63.20;;;;;;5016370;28;20463;-89
2023/05/18 11:04:55;;;;;;;2.60;1.73;;;23.00;63.60;;;;;;5020666;28;20463;-87
2023/05/18 11:07:24;;;;;;;3.10;2.40;;;23.00;63.50;;;;;;5029077;28;20493;-88
2023/05/18 11:09:52;;;;;;;4.40;1.70;;;23.00;63.70;;;;;;5021601;28;20460;-90
2023/05/18 11:12:18;;;;;;;4.57;2.17;;;23.10;63.70;;;;;;5028280;28;20936;-90
2023/05/18 11:14:50;;;;;;;2.53;2.07;;;23.10;64.00;;;;;;5028504;28;20848;-90
2023/05/18 11:17:21;;;;;;;8.30;1.70;;;23.10;63.90;;;;;;5022230;28;20849;-88
2023/05/18 11:20:17;;;;;;;4.10;2.50;;;23.10;64.30;;;;;;5019978;28;20991;-83
2023/05/18 11:22:50;;;;;;;2.90;1.63;;;23.10;64.10;;;;;;5024646;28;20454;-88
2023/05/18 11:25:44;;;;;;;3.40;1.90;;;23.20;64.60;;;;;;5026292;28;21027;-86
2023/05/18 11:28:13;;;;;;;2.80;1.73;;;23.20;64.30;;;;;;5024788;28;20501;-83
2023/05/18 11:30:48;;;;;;;3.50;1.80;;;23.20;64.90;;;;;;5020233;28;20494;-84
2023/05/18 11:33:22;;;;;;;2.50;1.77;;;23.20;64.70;;;;;;5029490;28;20557;-87
2023/05/18 11:35:58;;;;;;;2.73;1.80;;;23.20;65.00;;;;;;5025433;28;20593;-87
2023/05/18 11:38:53;;;;;;;3.60;1.70;;;23.30;64.90;;;;;;5021381;28;20466;-86
2023/05/18 11:41:33;;;;;;;3.80;1.40;;;23.30;64.70;;;;;;5024857;28;20459;-86
2023/05/18 11:44:19;;;;;;;5.70;1.30;;;23.30;65.10;;;;;;5030207;28;20473;-83
2023/05/18 11:46:53;;;;;;;2.37;1.37;;;23.30;65.00;;;;;;5017520;28;20973;-83
2023/05/18 11:49:22;;;;;;;2.27;1.40;;;23.30;65.40;;;;;;5029679;28;20485;-85
2023/05/18 11:52:05;;;;;;;2.30;1.40;;;23.30;65.20;;;;;;5026533;28;20548;-88
2023/05/18 11:54:51;;;;;;;3.37;1.30;;;23.30;65.00;;;;;;5023081;28;20451;-88
2023/05/18 11:57:19;;;;;;;3.33;1.67;;;23.30;65.00;;;;;;5030510;28;20502;-89
2023/05/18 11:59:48;;;;;;;2.80;1.43;;;23.30;66.40;;;;;;5021031;28;20459;-91
2023/05/18 12:02:20;;;;;;;3.50;1.90;;;23.30;65.30;;;;;;5023614;28;20838;-92
2023/05/18 12:04:49;;;;;;;4.10;1.47;;;23.40;65.30;;;;;;5025542;28;20451;-86
2023/05/18 12:07:19;;;;;;;2.40;1.33;;;23.40;65.50;;;;;;5024076;28;20463;-87
2023/05/18 12:09:47;;;;;;;3.30;2.30;;;23.40;65.60;;;;;;5020835;28;20509;-84
2023/05/18 12:12:18;;;;;;;3.27;1.67;;;23.40;65.50;;;;;;5025357;28;20475;-84
2023/05/18 12:14:51;;;;;;;1.77;1.47;;;23.40;65.80;;;;;;5026910;28;20466;-82
2023/05/18 12:17:19;;;;;;;2.33;1.90;;;23.40;65.60;;;;;;5019114;28;20462;-85
2023/05/18 12:19:48;;;;;;;2.77;1.73;;;23.40;65.70;;;;;;5022564;28;20961;-86
2023/05/18 12:22:15;;;;;;;2.83;1.40;;;23.40;64.90;;;;;;5020829;28;20462;-88
2023/05/18 12:24:44;;;;;;;6.60;1.90;;;23.40;65.30;;;;;;5026807;28;20466;-92
2023/05/18 12:27:12;;;;;;;2.30;1.53;;;23.40;64.60;;;;;;5023146;28;20486;-85
2023/05/18 12:29:39;;;;;;;2.03;1.40;;;23.40;63.90;;;;;;5029769;28;20485;-88
2023/05/18 12:32:08;;;;;;;2.97;1.80;;;23.40;63.90;;;;;;5025741;28;20455;-90
2023/05/18 12:34:35;;;;;;;2.27;1.57;;;23.30;63.60;;;;;;5019308;28;20460;-86
2023/05/18 12:37:02;;;;;;;2.43;1.47;;;23.40;64.10;;;;;;5025845;28;21006;-88
2023/05/18 12:39:29;;;;;;;3.70;1.70;;;23.40;63.80;;;;;;5028803;28;20455;-93
2023/05/18 12:42:09;;;;;;;7.40;1.57;;;23.40;64.10;;;;;;5022617;28;20478;-83
2023/05/18 12:44:35;;;;;;;2.23;1.50;;;23.40;63.70;;;;;;5018317;28;20467;-86
2023/05/18 12:47:03;;;;;;;3.30;1.87;;;23.40;64.40;;;;;;5023706;28;20459;-87
2023/05/18 12:49:35;;;;;;;4.70;1.43;;;23.40;64.30;;;;;;5025203;28;20498;-90
2023/05/18 12:52:08;;;;;;;1.83;1.43;;;23.40;64.00;;;;;;5028541;28;20537;-85